createdAt,value
2023-01-04T00:01:43.261Z,25.25
2023-01-04T00:04:30.909Z,36.20
2023-01-04T00:07:18.648Z,36.22
2023-01-04T00:10:06.577Z,43.40
2023-01-04T00:12:54.665Z,31.83
2023-01-04T00:15:42.376Z,36.92
2023-01-04T00:18:31.137Z,27.85
2023-01-04T00:21:27.138Z,30.98
2023-01-04T00:24:15.617Z,29.13
2023-01-04T00:27:03.191Z,31.00
2023-01-04T00:29:50.864Z,25.35
2023-01-04T00:32:38.615Z,25.13
2023-01-04T00:35:44.679Z,26.35
2023-01-04T00:38:34.286Z,21.80
2023-01-04T00:41:56.787Z,27.27
2023-01-04T00:44:30.696Z,25.83
2023-01-04T00:47:18.578Z,16.33
2023-01-04T00:50:06.661Z,16.92
2023-01-04T00:52:54.410Z,19.63
2023-01-04T00:55:42.690Z,17.20
2023-01-04T00:58:30.355Z,24.35
2023-01-04T01:01:18.194Z,25.50
2023-01-04T01:04:05.985Z,25.40
2023-01-04T01:06:53.803Z,21.75
2023-01-04T01:09:41.464Z,24.58
2023-01-04T01:12:29.975Z,26.88
2023-01-04T01:15:17.758Z,66.75
2023-01-04T01:18:05.425Z,126.40
2023-01-04T01:20:53.093Z,60.08
2023-01-04T01:23:41.692Z,23.83
2023-01-04T01:26:29.424Z,40.25
2023-01-04T01:29:17.524Z,28.73
2023-01-04T01:32:05.497Z,18.55
2023-01-04T01:34:53.209Z,21.63
2023-01-04T01:37:40.824Z,18.35
2023-01-04T01:40:29.462Z,22.80
2023-01-04T01:43:22.800Z,27.23
2023-01-04T01:46:11.412Z,17.63
2023-01-04T01:49:27.672Z,29.85
2023-01-04T01:52:21.868Z,26.73
2023-01-04T01:55:12.777Z,22.88
2023-01-04T01:58:01.300Z,28.33
2023-01-04T02:00:49.241Z,17.52
2023-01-04T02:03:40.439Z,23.27
2023-01-04T02:06:32.903Z,33.27
2023-01-04T02:09:21.744Z,25.85
2023-01-04T02:12:13.728Z,22.27
2023-01-04T02:15:01.525Z,22.50
2023-01-04T02:18:15.402Z,29.65
2023-01-04T02:21:13.064Z,26.52
2023-01-04T02:24:12.763Z,48.92
2023-01-04T02:27:12.630Z,49.42
2023-01-04T02:30:06.255Z,24.70
2023-01-04T02:33:07.441Z,29.50
2023-01-04T02:36:14.485Z,22.77
2023-01-04T02:39:14.243Z,32.05
2023-01-04T02:42:04.949Z,33.40
2023-01-04T02:45:04.747Z,37.35
2023-01-04T02:48:10.958Z,38.25
2023-01-04T02:51:00.728Z,41.55
2023-01-04T02:53:48.426Z,41.55
2023-01-04T02:57:04.577Z,54.70
2023-01-04T03:00:29.937Z,60.35
2023-01-04T03:03:46.508Z,41.08
2023-01-04T03:06:44.679Z,40.85
2023-01-04T03:09:35.917Z,32.42
2023-01-04T03:12:36.514Z,38.40
2023-01-04T03:15:28.451Z,33.53
2023-01-04T03:18:23.086Z,36.00
2023-01-04T03:21:13.634Z,41.88
2023-01-04T03:24:22.572Z,37.60
2023-01-04T03:27:28.992Z,40.28
2023-01-04T03:30:37.013Z,18.70
2023-01-04T03:33:43.058Z,26.02
2023-01-04T03:36:46.707Z,16.20
2023-01-04T03:40:34.660Z,19.73
2023-01-04T03:43:55.990Z,18.75
2023-01-04T03:47:12.496Z,18.35
2023-01-04T03:50:13.793Z,24.33
2023-01-04T03:53:02.997Z,17.10
2023-01-04T03:55:53.007Z,16.73
2023-01-04T03:58:40.973Z,18.40
2023-01-04T04:01:29.429Z,20.83
2023-01-04T04:04:36.133Z,20.85
2023-01-04T04:07:42.234Z,16.30
2023-01-04T04:10:29.920Z,21.45
2023-01-04T04:13:17.615Z,15.70
2023-01-04T04:16:05.601Z,19.90
2023-01-04T04:18:53.628Z,16.65
2023-01-04T04:21:41.736Z,25.20
2023-01-04T04:24:29.556Z,19.05
2023-01-04T04:27:17.256Z,19.75
2023-01-04T04:30:05.618Z,18.88
2023-01-04T04:32:53.320Z,26.45
2023-01-04T04:35:41.284Z,24.65
2023-01-04T04:38:28.991Z,21.88
2023-01-04T04:41:35.337Z,17.88
2023-01-04T04:44:23.015Z,20.95
2023-01-04T04:47:10.689Z,23.65
2023-01-04T04:49:58.349Z,17.42
2023-01-04T04:52:49.787Z,16.88
2023-01-04T04:55:40.402Z,18.73
2023-01-04T04:58:28.151Z,18.95
2023-01-04T05:01:16.550Z,26.63
2023-01-04T05:04:14.379Z,19.00
2023-01-04T05:07:02.827Z,18.48
2023-01-04T05:09:52.712Z,18.33
2023-01-04T05:12:59.831Z,20.83
2023-01-04T05:15:54.101Z,23.98
2023-01-04T05:18:41.701Z,23.92
2023-01-04T05:21:29.686Z,23.13
2023-01-04T05:24:17.406Z,20.65
2023-01-04T05:27:06.470Z,31.90
2023-01-04T05:30:12.597Z,26.23
2023-01-04T05:33:00.846Z,25.40
2023-01-04T05:35:48.978Z,22.27
2023-01-04T05:38:36.822Z,25.48
2023-01-04T05:41:42.907Z,25.88
2023-01-04T05:44:30.625Z,22.63
2023-01-04T05:47:18.512Z,26.35
2023-01-04T05:50:06.925Z,23.48
2023-01-04T05:52:54.644Z,33.88
2023-01-04T05:55:42.483Z,26.35
2023-01-04T05:58:33.314Z,28.17
2023-01-04T06:01:21.124Z,28.20
2023-01-04T06:04:09.012Z,28.50
2023-01-04T06:06:56.784Z,26.15
2023-01-04T06:14:35.477Z,38.63
2023-01-04T06:17:24.190Z,39.80
2023-01-04T06:20:12.258Z,48.42
2023-01-04T06:23:02.912Z,38.20
2023-01-04T06:25:50.498Z,52.00
2023-01-04T06:28:40.990Z,39.70
2023-01-04T06:31:29.045Z,37.83
2023-01-04T06:34:16.755Z,39.70
2023-01-04T06:37:06.030Z,49.03
2023-01-04T06:39:53.876Z,43.80
2023-01-04T06:42:47.003Z,42.22
2023-01-04T06:45:34.561Z,43.97
2023-01-04T06:48:22.251Z,52.58
2023-01-04T06:51:10.120Z,52.75
2023-01-04T06:53:57.763Z,51.53
2023-01-04T06:56:45.531Z,57.00
2023-01-04T06:59:33.112Z,54.97
2023-01-04T07:02:21.781Z,54.67
2023-01-04T07:05:09.753Z,48.40
2023-01-04T07:08:07.405Z,46.67
2023-01-04T07:10:55.818Z,53.25
2023-01-04T07:13:43.394Z,54.67
2023-01-04T07:16:30.996Z,49.13
2023-01-04T07:19:18.912Z,45.72
2023-01-04T07:22:06.441Z,46.67
2023-01-04T07:24:54.055Z,50.72
2023-01-04T07:27:41.566Z,55.60
2023-01-04T07:30:29.359Z,53.05
2023-01-04T07:33:17.416Z,58.42
2023-01-04T07:36:06.712Z,58.08
2023-01-04T07:38:54.457Z,56.53
2023-01-04T07:41:43.033Z,41.15
2023-01-04T07:44:31.693Z,34.38
2023-01-04T07:47:19.508Z,31.65
2023-01-04T07:50:07.687Z,31.27
2023-01-04T07:52:55.251Z,24.83
2023-01-04T07:55:42.812Z,27.85
2023-01-04T07:58:34.599Z,24.80
2023-01-04T08:01:22.301Z,27.38
2023-01-04T08:04:12.340Z,19.67
2023-01-04T08:07:02.170Z,22.90
2023-01-04T08:09:49.750Z,28.90
2023-01-04T08:12:41.369Z,17.02
2023-01-04T08:15:34.634Z,26.30
2023-01-04T08:18:22.213Z,23.95
2023-01-04T08:21:09.924Z,16.55
2023-01-04T08:23:57.676Z,23.63
2023-01-04T08:26:48.736Z,20.40
2023-01-04T08:32:40.999Z,13.88
2023-01-04T08:35:28.566Z,24.35
2023-01-04T08:38:57.554Z,18.05
2023-01-04T08:41:55.933Z,16.30
2023-01-04T08:44:32.111Z,16.98
2023-01-04T08:47:19.698Z,21.33
2023-01-04T08:50:11.154Z,21.65
2023-01-04T08:52:58.807Z,26.35
2023-01-04T08:55:51.597Z,25.55
2023-01-04T08:58:39.391Z,19.00
2023-01-04T09:01:27.191Z,17.10
2023-01-04T09:04:14.905Z,18.27
2023-01-04T09:07:02.534Z,17.98
2023-01-04T09:09:50.148Z,22.27
2023-01-04T09:12:37.903Z,17.30
2023-01-04T09:15:25.730Z,17.55
2023-01-04T09:18:31.612Z,22.02
2023-01-04T09:21:22.291Z,22.23
2023-01-04T09:24:10.089Z,23.20
2023-01-04T09:26:57.682Z,27.27
2023-01-04T09:29:45.362Z,21.98
2023-01-04T09:32:33.995Z,18.92
2023-01-04T09:35:21.705Z,28.20
2023-01-04T09:38:09.285Z,15.93
2023-01-04T09:41:25.877Z,17.50
2023-01-04T09:44:54.452Z,20.20
2023-01-04T09:50:53.157Z,17.90
2023-01-04T09:53:49.947Z,21.80
2023-01-04T09:56:42.334Z,31.70
2023-01-04T09:59:32.475Z,29.83
2023-01-04T10:02:30.599Z,29.05
2023-01-04T10:05:21.962Z,19.92
2023-01-04T10:08:18.517Z,35.47
2023-01-04T10:11:43.472Z,51.33
2023-01-04T10:15:04.677Z,28.35
2023-01-04T10:21:40.716Z,31.40
2023-01-04T10:25:00.338Z,28.20
2023-01-04T10:28:03.591Z,35.30
2023-01-04T10:31:40.149Z,40.33
2023-01-04T10:34:43.686Z,32.40
2023-01-04T10:37:35.923Z,32.42
2023-01-04T10:44:11.428Z,37.38
2023-01-04T10:46:52.183Z,34.50
2023-01-04T10:49:49.535Z,40.67
2023-01-04T10:52:37.098Z,37.88
2023-01-04T10:56:24.491Z,35.97
2023-01-04T10:58:59.330Z,45.53
2023-01-04T11:01:59.211Z,52.58
2023-01-04T11:04:49.753Z,47.47
2023-01-04T11:07:41.854Z,54.65
2023-01-04T11:10:39.140Z,50.92
2023-01-04T11:13:26.957Z,53.25
2023-01-04T11:16:14.650Z,54.85
2023-01-04T11:19:04.504Z,47.33
2023-01-04T11:22:10.579Z,57.83
2023-01-04T11:28:23.265Z,54.58
2023-01-04T11:31:17.841Z,50.55
2023-01-04T11:34:06.947Z,47.20
2023-01-04T11:36:54.627Z,53.10
2023-01-04T11:39:45.230Z,52.65
2023-01-04T11:43:11.785Z,60.90
2023-01-04T11:46:19.971Z,63.55
2023-01-04T11:49:42.422Z,59.03
2023-01-04T11:52:35.883Z,65.57
2023-01-04T11:56:13.554Z,58.83
2023-01-04T12:03:40.334Z,46.75
2023-01-04T12:06:48.212Z,47.50
2023-01-04T12:09:35.742Z,49.55
2023-01-04T12:12:28.953Z,59.15
2023-01-04T12:15:32.554Z,56.33
2023-01-04T12:18:26.839Z,47.05
2023-01-04T12:21:26.498Z,46.30
2023-01-04T12:24:21.634Z,40.35
2023-01-04T12:27:15.069Z,39.92
2023-01-04T12:30:06.175Z,43.97
2023-01-04T12:32:53.961Z,46.63
2023-01-04T12:35:59.749Z,50.67
2023-01-04T12:38:53.135Z,58.13
2023-01-04T12:42:01.792Z,44.97
2023-01-04T12:44:52.342Z,57.92
2023-01-04T12:47:58.840Z,56.28
2023-01-04T12:51:34.257Z,41.92
2023-01-04T12:54:32.329Z,52.03
2023-01-04T12:57:23.484Z,46.97
2023-01-04T13:00:13.317Z,57.45
2023-01-04T13:03:18.791Z,70.72
2023-01-04T13:06:09.212Z,42.15
2023-01-04T13:08:56.848Z,47.50
2023-01-04T13:12:36.697Z,47.63
2023-01-04T13:15:45.930Z,51.53
2023-01-04T13:18:35.268Z,52.22
2023-01-04T13:21:33.965Z,40.63
2023-01-04T13:24:28.449Z,46.33
2023-01-04T13:27:19.847Z,48.17
2023-01-04T13:30:27.522Z,46.53
2023-01-04T13:33:27.793Z,54.80
2023-01-04T13:36:16.595Z,49.33
2023-01-04T13:39:08.097Z,51.83
2023-01-04T13:41:59.617Z,55.35
2023-01-04T13:45:21.183Z,51.40
2023-01-04T13:48:13.026Z,47.83
2023-01-04T13:51:04.282Z,71.40
2023-01-04T13:53:57.029Z,54.50
2023-01-04T13:56:49.696Z,46.28
2023-01-04T13:59:41.153Z,46.47
2023-01-04T14:02:29.791Z,42.78
2023-01-04T14:05:18.576Z,50.33
2023-01-04T14:08:13.240Z,55.83
2023-01-04T14:11:01.691Z,53.15
2023-01-04T14:13:49.404Z,49.88
2023-01-04T14:16:37.135Z,54.38
2023-01-04T14:19:41.398Z,50.72
2023-01-04T14:22:33.252Z,55.80
2023-01-04T14:25:48.684Z,51.42
2023-01-04T14:28:43.134Z,50.60
2023-01-04T14:31:37.493Z,41.53
2023-01-04T14:34:27.621Z,59.63
2023-01-04T14:37:15.527Z,47.33
2023-01-04T14:40:15.234Z,51.25
2023-01-04T14:43:02.971Z,54.90
2023-01-04T14:45:50.950Z,50.00
2023-01-04T14:48:38.663Z,53.47
2023-01-04T14:51:41.218Z,51.28
